sensor_id;sensor_type;location;lat;lon;timestamp;pressure;altitude;pressure_sealevel;temperature;humidity
48848;BME280;36611;51.638;5.784;2023-07-31T00:02:14;100951.59;;;27.40;43.91
48848;BME280;36611;51.638;5.784;2023-07-31T00:04:41;100955.41;;;27.39;43.97
48848;BME280;36611;51.638;5.784;2023-07-31T00:07:07;100941.63;;;27.39;44.07
48848;BME280;36611;51.638;5.784;2023-07-31T00:09:34;100950.75;;;27.39;44.07
48848;BME280;36611;51.638;5.784;2023-07-31T00:12:01;100952.66;;;27.39;44.01
48848;BME280;36611;51.638;5.784;2023-07-31T00:14:27;100944.38;;;27.39;44.00
48848;BME280;36611;51.638;5.784;2023-07-31T00:16:54;100942.69;;;27.38;43.97
48848;BME280;36611;51.638;5.784;2023-07-31T00:19:20;100947.13;;;27.39;43.80
48848;BME280;36611;51.638;5.784;2023-07-31T00:21:47;100938.00;;;27.38;44.24
48848;BME280;36611;51.638;5.784;2023-07-31T00:24:14;100945.44;;;27.38;44.06
48848;BME280;36611;51.638;5.784;2023-07-31T00:26:40;100945.44;;;27.38;44.03
48848;BME280;36611;51.638;5.784;2023-07-31T00:29:07;100948.19;;;27.38;43.72
48848;BME280;36611;51.638;5.784;2023-07-31T00:31:34;100946.50;;;27.37;43.73
48848;BME280;36611;51.638;5.784;2023-07-31T00:34:00;100945.44;;;27.38;44.01
48848;BME280;36611;51.638;5.784;2023-07-31T00:36:27;100939.09;;;27.37;43.96
48848;BME280;36611;51.638;5.784;2023-07-31T00:38:53;100944.59;;;27.37;44.05
48848;BME280;36611;51.638;5.784;2023-07-31T00:41:20;100941.84;;;27.37;43.91
48848;BME280;36611;51.638;5.784;2023-07-31T00:43:47;100931.66;;;27.38;44.01
48848;BME280;36611;51.638;5.784;2023-07-31T00:46:14;100929.13;;;27.36;44.10
48848;BME280;36611;51.638;5.784;2023-07-31T00:48:41;100925.28;;;27.37;43.91
48848;BME280;36611;51.638;5.784;2023-07-31T00:51:08;100935.47;;;27.37;43.69
48848;BME280;36611;51.638;5.784;2023-07-31T00:53:35;100935.47;;;27.37;43.83
48848;BME280;36611;51.638;5.784;2023-07-31T00:56:03;100942.91;;;27.36;43.77
48848;BME280;36611;51.638;5.784;2023-07-31T00:58:30;100934.63;;;27.36;43.98
48848;BME280;36611;51.638;5.784;2023-07-31T01:00:57;100931.88;;;27.36;43.81
48848;BME280;36611;51.638;5.784;2023-07-31T01:03:24;100932.94;;;27.35;44.10
48848;BME280;36611;51.638;5.784;2023-07-31T01:09:02;100919.16;;;27.35;43.97
48848;BME280;36611;51.638;5.784;2023-07-31T01:11:32;100919.38;;;27.34;43.92
48848;BME280;36611;51.638;5.784;2023-07-31T01:14:00;100913.84;;;27.34;43.80
48848;BME280;36611;51.638;5.784;2023-07-31T01:16:27;100911.94;;;27.34;43.85
48848;BME280;36611;51.638;5.784;2023-07-31T01:18:53;100911.94;;;27.34;43.97
48848;BME280;36611;51.638;5.784;2023-07-31T01:21:45;100916.38;;;27.35;43.93
48848;BME280;36611;51.638;5.784;2023-07-31T01:27:34;100907.69;;;27.32;44.04
48848;BME280;36611;51.638;5.784;2023-07-31T01:30:08;100919.56;;;27.32;43.87
48848;BME280;36611;51.638;5.784;2023-07-31T01:32:42;100921.50;;;27.32;43.86
48848;BME280;36611;51.638;5.784;2023-07-31T01:35:09;100914.28;;;27.31;43.87
48848;BME280;36611;51.638;5.784;2023-07-31T01:37:36;100915.97;;;27.32;43.79
48848;BME280;36611;51.638;5.784;2023-07-31T01:40:05;100918.94;;;27.30;44.04
48848;BME280;36611;51.638;5.784;2023-07-31T01:42:32;100908.75;;;27.31;43.92
48848;BME280;36611;51.638;5.784;2023-07-31T01:44:58;100908.75;;;27.31;43.96
48848;BME280;36611;51.638;5.784;2023-07-31T01:47:25;100904.94;;;27.32;43.86
48848;BME280;36611;51.638;5.784;2023-07-31T01:49:52;100904.94;;;27.32;43.71
48848;BME280;36611;51.638;5.784;2023-07-31T01:52:18;100903.25;;;27.31;43.96
48848;BME280;36611;51.638;5.784;2023-07-31T01:54:45;100900.50;;;27.31;43.88
48848;BME280;36611;51.638;5.784;2023-07-31T01:57:11;100897.72;;;27.31;43.98
48848;BME280;36611;51.638;5.784;2023-07-31T01:59:38;100892.22;;;27.31;44.00
48848;BME280;36611;51.638;5.784;2023-07-31T02:02:05;100888.63;;;27.30;43.87
48848;BME280;36611;51.638;5.784;2023-07-31T02:04:32;100897.72;;;27.31;43.99
48848;BME280;36611;51.638;5.784;2023-07-31T02:06:58;100894.97;;;27.31;44.01
48848;BME280;36611;51.638;5.784;2023-07-31T02:09:25;100900.50;;;27.31;44.10
48848;BME280;36611;51.638;5.784;2023-07-31T02:11:51;100894.13;;;27.30;43.87
48848;BME280;36611;51.638;5.784;2023-07-31T02:14:18;100882.25;;;27.30;43.87
48848;BME280;36611;51.638;5.784;2023-07-31T02:16:45;100883.09;;;27.30;43.87
48848;BME280;36611;51.638;5.784;2023-07-31T02:19:11;100880.34;;;27.30;43.81
48848;BME280;36611;51.638;5.784;2023-07-31T02:21:38;100873.97;;;27.30;43.88
48848;BME280;36611;51.638;5.784;2023-07-31T02:24:04;100874.81;;;27.30;43.92
48848;BME280;36611;51.638;5.784;2023-07-31T02:26:31;100870.16;;;27.31;43.68
48848;BME280;36611;51.638;5.784;2023-07-31T02:28:57;100861.25;;;27.29;43.93
48848;BME280;36611;51.638;5.784;2023-07-31T02:31:24;100874.81;;;27.30;43.86
48848;BME280;36611;51.638;5.784;2023-07-31T02:33:51;100866.56;;;27.30;43.86
48848;BME280;36611;51.638;5.784;2023-07-31T02:36:17;100864.84;;;27.29;43.92
48848;BME280;36611;51.638;5.784;2023-07-31T02:38:44;100866.78;;;27.29;43.87
48848;BME280;36611;51.638;5.784;2023-07-31T02:41:11;100873.13;;;27.29;43.79
48848;BME280;36611;51.638;5.784;2023-07-31T02:43:38;100861.25;;;27.29;43.78
48848;BME280;36611;51.638;5.784;2023-07-31T02:46:04;100868.69;;;27.28;43.82
48848;BME280;36611;51.638;5.784;2023-07-31T02:48:31;100870.38;;;27.29;43.85
48848;BME280;36611;51.638;5.784;2023-07-31T02:50:58;100864.84;;;27.29;43.63
48848;BME280;36611;51.638;5.784;2023-07-31T02:53:24;100869.53;;;27.29;43.79
48848;BME280;36611;51.638;5.784;2023-07-31T02:55:51;100860.41;;;27.28;43.79
48848;BME280;36611;51.638;5.784;2023-07-31T02:58:17;100865.06;;;27.28;43.83
48848;BME280;36611;51.638;5.784;2023-07-31T03:00:44;100860.41;;;27.28;43.82
48848;BME280;36611;51.638;5.784;2023-07-31T03:03:11;100849.59;;;27.27;43.80
48848;BME280;36611;51.638;5.784;2023-07-31T03:05:38;100854.03;;;27.28;43.75
48848;BME280;36611;51.638;5.784;2023-07-31T03:08:05;100854.03;;;27.28;43.83
48848;BME280;36611;51.638;5.784;2023-07-31T03:10:32;100854.91;;;27.28;43.83
48848;BME280;36611;51.638;5.784;2023-07-31T03:12:58;100849.59;;;27.27;43.96
48848;BME280;36611;51.638;5.784;2023-07-31T03:15:25;100852.34;;;27.27;43.74
48848;BME280;36611;51.638;5.784;2023-07-31T03:17:51;100851.50;;;27.26;44.09
48848;BME280;36611;51.638;5.784;2023-07-31T03:20:19;100852.34;;;27.27;43.88
48848;BME280;36611;51.638;5.784;2023-07-31T03:22:45;100856.19;;;27.26;43.84
48848;BME280;36611;51.638;5.784;2023-07-31T03:25:12;100862.53;;;27.26;43.91
48848;BME280;36611;51.638;5.784;2023-07-31T03:27:39;100861.69;;;27.26;43.80
48848;BME280;36611;51.638;5.784;2023-07-31T03:30:06;100857.03;;;27.26;43.79
48848;BME280;36611;51.638;5.784;2023-07-31T03:32:32;100858.94;;;27.26;43.66
48848;BME280;36611;51.638;5.784;2023-07-31T03:34:59;100855.34;;;27.25;43.80
48848;BME280;36611;51.638;5.784;2023-07-31T03:37:26;100856.19;;;27.26;43.83
48848;BME280;36611;51.638;5.784;2023-07-31T03:39:53;100848.75;;;27.26;43.90
48848;BME280;36611;51.638;5.784;2023-07-31T03:42:19;100842.38;;;27.26;43.85
48848;BME280;36611;51.638;5.784;2023-07-31T03:44:46;100846.22;;;27.25;43.51
48848;BME280;36611;51.638;5.784;2023-07-31T03:47:13;100837.94;;;27.25;43.68
48848;BME280;36611;51.638;5.784;2023-07-31T03:49:39;100828.81;;;27.24;43.92
48848;BME280;36611;51.638;5.784;2023-07-31T03:52:06;100826.91;;;27.25;43.86
48848;BME280;36611;51.638;5.784;2023-07-31T03:54:33;100826.91;;;27.25;43.73
48848;BME280;36611;51.638;5.784;2023-07-31T03:56:59;100817.78;;;27.24;43.88
48848;BME280;36611;51.638;5.784;2023-07-31T03:59:26;100826.91;;;27.25;43.72
48848;BME280;36611;51.638;5.784;2023-07-31T04:01:52;100822.47;;;27.23;43.77
48848;BME280;36611;51.638;5.784;2023-07-31T04:04:19;100818.63;;;27.25;43.69
48848;BME280;36611;51.638;5.784;2023-07-31T04:06:45;100814.19;;;27.23;43.89
48848;BME280;36611;51.638;5.784;2023-07-31T04:09:12;100813.34;;;27.23;43.57
48848;BME280;36611;51.638;5.784;2023-07-31T04:11:39;100814.19;;;27.23;43.62
48848;BME280;36611;51.638;5.784;2023-07-31T04:14:05;100810.59;;;27.23;43.76
48848;BME280;36611;51.638;5.784;2023-07-31T04:16:32;100811.44;;;27.23;43.68
48848;BME280;36611;51.638;5.784;2023-07-31T04:18:58;100813.34;;;27.23;43.62
48848;BME280;36611;51.638;5.784;2023-07-31T04:21:25;100807.81;;;27.23;43.66
48848;BME280;36611;51.638;5.784;2023-07-31T04:23:51;100809.75;;;27.22;43.74
48848;BME280;36611;51.638;5.784;2023-07-31T04:26:22;100807.81;;;27.23;43.81
48848;BME280;36611;51.638;5.784;2023-07-31T04:28:49;100802.31;;;27.23;43.55
48848;BME280;36611;51.638;5.784;2023-07-31T04:31:15;100809.75;;;27.22;43.37
48848;BME280;36611;51.638;5.784;2023-07-31T04:33:42;100803.38;;;27.22;43.84
48848;BME280;36611;51.638;5.784;2023-07-31T04:36:08;100806.13;;;27.22;43.82
48848;BME280;36611;51.638;5.784;2023-07-31T04:38:35;100800.63;;;27.22;43.73
48848;BME280;36611;51.638;5.784;2023-07-31T04:41:01;100797.88;;;27.22;43.82
48848;BME280;36611;51.638;5.784;2023-07-31T04:43:28;100796.16;;;27.21;43.77
48848;BME280;36611;51.638;5.784;2023-07-31T04:45:54;100794.25;;;27.21;43.82
48848;BME280;36611;51.638;5.784;2023-07-31T04:48:21;100785.13;;;27.21;43.57
48848;BME280;36611;51.638;5.784;2023-07-31T04:50:48;100790.66;;;27.21;43.71
48848;BME280;36611;51.638;5.784;2023-07-31T04:53:14;100786.00;;;27.21;43.78
48848;BME280;36611;51.638;5.784;2023-07-31T04:55:41;100776.03;;;27.20;43.75
48848;BME280;36611;51.638;5.784;2023-07-31T04:58:07;100776.88;;;27.21;43.71
48848;BME280;36611;51.638;5.784;2023-07-31T05:00:34;100781.53;;;27.20;43.71
48848;BME280;36611;51.638;5.784;2023-07-31T05:03:00;100785.13;;;27.21;43.75
48848;BME280;36611;51.638;5.784;2023-07-31T05:05:27;100785.13;;;27.21;43.57
48848;BME280;36611;51.638;5.784;2023-07-31T05:07:54;100777.94;;;27.20;43.61
48848;BME280;36611;51.638;5.784;2023-07-31T05:10:20;100776.25;;;27.19;43.65
48848;BME280;36611;51.638;5.784;2023-07-31T05:12:47;100769.88;;;27.18;43.71
48848;BME280;36611;51.638;5.784;2023-07-31T05:15:14;100763.31;;;27.19;43.65
48848;BME280;36611;51.638;5.784;2023-07-31T05:17:42;100763.31;;;27.19;43.58
48848;BME280;36611;51.638;5.784;2023-07-31T05:20:08;100750.59;;;27.18;43.63
48848;BME280;36611;51.638;5.784;2023-07-31T05:22:35;100762.47;;;27.19;43.69
48848;BME280;36611;51.638;5.784;2023-07-31T05:25:02;100752.28;;;27.19;43.69
48848;BME280;36611;51.638;5.784;2023-07-31T05:27:29;100748.66;;;27.19;43.88
48848;BME280;36611;51.638;5.784;2023-07-31T05:29:56;100748.66;;;27.19;43.74
48848;BME280;36611;51.638;5.784;2023-07-31T05:32:22;100747.81;;;27.18;43.70
48848;BME280;36611;51.638;5.784;2023-07-31T05:34:52;100746.75;;;27.19;43.70
48848;BME280;36611;51.638;5.784;2023-07-31T05:37:19;100747.81;;;27.18;43.71
48848;BME280;36611;51.638;5.784;2023-07-31T05:39:46;100743.16;;;27.19;43.69
48848;BME280;36611;51.638;5.784;2023-07-31T05:42:13;100750.59;;;27.18;43.52
48848;BME280;36611;51.638;5.784;2023-07-31T05:44:39;100739.56;;;27.18;43.74
48848;BME280;36611;51.638;5.784;2023-07-31T05:47:06;100737.88;;;27.17;43.66
48848;BME280;36611;51.638;5.784;2023-07-31T05:49:33;100742.31;;;27.18;43.75
48848;BME280;36611;51.638;5.784;2023-07-31T05:51:59;100739.78;;;27.17;43.65
48848;BME280;36611;51.638;5.784;2023-07-31T05:54:26;100727.69;;;27.18;43.59
48848;BME280;36611;51.638;5.784;2023-07-31T05:56:52;100737.88;;;27.17;43.74
48848;BME280;36611;51.638;5.784;2023-07-31T05:59:19;100732.34;;;27.17;43.74
48848;BME280;36611;51.638;5.784;2023-07-31T06:01:45;100727.91;;;27.16;43.83
48848;BME280;36611;51.638;5.784;2023-07-31T06:04:12;100726.84;;;27.17;43.70
48848;BME280;36611;51.638;5.784;2023-07-31T06:06:39;100726.84;;;27.17;43.67
48848;BME280;36611;51.638;5.784;2023-07-31T06:09:06;100726.00;;;27.17;43.67
48848;BME280;36611;51.638;5.784;2023-07-31T06:11:33;100716.88;;;27.16;43.70
48848;BME280;36611;51.638;5.784;2023-07-31T06:13:59;100719.63;;;27.16;43.85
48848;BME280;36611;51.638;5.784;2023-07-31T06:16:26;100714.97;;;27.17;43.64
48848;BME280;36611;51.638;5.784;2023-07-31T06:18:53;100719.63;;;27.16;43.66
48848;BME280;36611;51.638;5.784;2023-07-31T06:21:20;100723.22;;;27.17;43.53
48848;BME280;36611;51.638;5.784;2023-07-31T06:23:47;100719.63;;;27.16;43.77
48848;BME280;36611;51.638;5.784;2023-07-31T06:26:13;100720.69;;;27.15;44.06
48848;BME280;36611;51.638;5.784;2023-07-31T06:28:41;100712.44;;;27.15;43.54
48848;BME280;36611;51.638;5.784;2023-07-31T06:31:08;100716.88;;;27.16;43.78
48848;BME280;36611;51.638;5.784;2023-07-31T06:33:34;100705.00;;;27.16;43.56
48848;BME280;36611;51.638;5.784;2023-07-31T06:36:01;100705.00;;;27.16;43.66
48848;BME280;36611;51.638;5.784;2023-07-31T06:38:27;100713.28;;;27.16;43.53
48848;BME280;36611;51.638;5.784;2023-07-31T06:40:54;100709.44;;;27.17;43.65
48848;BME280;36611;51.638;5.784;2023-07-31T06:43:21;100699.50;;;27.16;43.47
48848;BME280;36611;51.638;5.784;2023-07-31T06:45:48;100700.34;;;27.16;43.64
48848;BME280;36611;51.638;5.784;2023-07-31T06:48:17;100686.53;;;27.16;43.49
48848;BME280;36611;51.638;5.784;2023-07-31T06:50:44;100693.97;;;27.16;43.70
48848;BME280;36611;51.638;5.784;2023-07-31T06:53:10;100677.44;;;27.16;43.64
48848;BME280;36611;51.638;5.784;2023-07-31T06:55:37;100681.25;;;27.15;43.70
48848;BME280;36611;51.638;5.784;2023-07-31T06:58:04;100673.84;;;27.15;43.58
48848;BME280;36611;51.638;5.784;2023-07-31T07:00:30;100684.84;;;27.15;43.73
48848;BME280;36611;51.638;5.784;2023-07-31T07:02:57;100675.75;;;27.15;43.65
48848;BME280;36611;51.638;5.784;2023-07-31T07:05:24;100684.84;;;27.15;43.89
48848;BME280;36611;51.638;5.784;2023-07-31T07:07:51;100672.97;;;27.15;43.64
48848;BME280;36611;51.638;5.784;2023-07-31T07:10:18;100672.97;;;27.15;43.59
48848;BME280;36611;51.638;5.784;2023-07-31T07:12:46;100665.56;;;27.15;43.88
48848;BME280;36611;51.638;5.784;2023-07-31T07:15:12;100687.63;;;27.15;43.64
48848;BME280;36611;51.638;5.784;2023-07-31T07:17:39;100679.34;;;27.15;43.69
48848;BME280;36611;51.638;5.784;2023-07-31T07:20:06;100674.91;;;27.14;43.65
48848;BME280;36611;51.638;5.784;2023-07-31T07:22:34;100668.31;;;27.15;43.56
48848;BME280;36611;51.638;5.784;2023-07-31T07:25:03;100663.88;;;27.14;43.42
48848;BME280;36611;51.638;5.784;2023-07-31T07:27:30;100663.03;;;27.14;43.64
48848;BME280;36611;51.638;5.784;2023-07-31T07:29:57;100666.63;;;27.14;43.62
48848;BME280;36611;51.638;5.784;2023-07-31T07:32:26;100661.13;;;27.14;43.76
48848;BME280;36611;51.638;5.784;2023-07-31T07:34:52;100652.84;;;27.14;43.54
48848;BME280;36611;51.638;5.784;2023-07-31T07:37:19;100665.78;;;27.14;43.62
48848;BME280;36611;51.638;5.784;2023-07-31T07:39:45;100658.56;;;27.13;43.66
48848;BME280;36611;51.638;5.784;2023-07-31T07:42:12;100664.94;;;27.13;43.82
48848;BME280;36611;51.638;5.784;2023-07-31T07:44:39;100656.66;;;27.13;43.73
48848;BME280;36611;51.638;5.784;2023-07-31T07:47:05;100649.25;;;27.14;43.62
48848;BME280;36611;51.638;5.784;2023-07-31T07:49:34;100662.19;;;27.13;43.67
48848;BME280;36611;51.638;5.784;2023-07-31T07:52:02;100657.72;;;27.12;43.72
48848;BME280;36611;51.638;5.784;2023-07-31T07:54:30;100652.00;;;27.14;43.70
48848;BME280;36611;51.638;5.784;2023-07-31T07:56:56;100651.16;;;27.13;43.78
48848;BME280;36611;51.638;5.784;2023-07-31T07:59:23;100656.03;;;27.11;43.54
48848;BME280;36611;51.638;5.784;2023-07-31T08:01:50;100654.97;;;27.12;43.61
48848;BME280;36611;51.638;5.784;2023-07-31T08:04:17;100656.03;;;27.11;43.85
48848;BME280;36611;51.638;5.784;2023-07-31T08:06:43;100645.03;;;27.11;43.69
48848;BME280;36611;51.638;5.784;2023-07-31T08:09:10;100643.31;;;27.10;43.84
48848;BME280;36611;51.638;5.784;2023-07-31T08:11:37;100647.78;;;27.11;43.98
48848;BME280;36611;51.638;5.784;2023-07-31T08:14:03;100646.72;;;27.12;43.54
48848;BME280;36611;51.638;5.784;2023-07-31T08:16:30;100645.84;;;27.12;43.78
48848;BME280;36611;51.638;5.784;2023-07-31T08:18:56;100645.84;;;27.12;43.83
48848;BME280;36611;51.638;5.784;2023-07-31T08:21:23;100646.72;;;27.12;43.63
48848;BME280;36611;51.638;5.784;2023-07-31T08:23:50;100656.88;;;27.12;43.68
48848;BME280;36611;51.638;5.784;2023-07-31T08:26:18;100653.28;;;27.11;43.74
48848;BME280;36611;51.638;5.784;2023-07-31T08:28:45;100644.16;;;27.11;43.68
48848;BME280;36611;51.638;5.784;2023-07-31T08:31:12;100649.69;;;27.11;43.71
48848;BME280;36611;51.638;5.784;2023-07-31T08:33:39;100643.09;;;27.12;43.79
48848;BME280;36611;51.638;5.784;2023-07-31T08:36:06;100646.94;;;27.11;43.72
48848;BME280;36611;51.638;5.784;2023-07-31T08:38:33;100648.84;;;27.10;43.67
48848;BME280;36611;51.638;5.784;2023-07-31T08:41:00;100650.75;;;27.10;43.84
48848;BME280;36611;51.638;5.784;2023-07-31T08:43:27;100643.31;;;27.10;43.60
48848;BME280;36611;51.638;5.784;2023-07-31T08:45:54;100641.63;;;27.09;43.64
48848;BME280;36611;51.638;5.784;2023-07-31T08:48:22;100643.56;;;27.09;43.68
48848;BME280;36611;51.638;5.784;2023-07-31T08:50:51;100647.16;;;27.09;43.82
48848;BME280;36611;51.638;5.784;2023-07-31T08:53:18;100649.91;;;27.09;43.77
48848;BME280;36611;51.638;5.784;2023-07-31T08:55:45;100641.84;;;27.08;43.77
48848;BME280;36611;51.638;5.784;2023-07-31T08:58:13;100649.06;;;27.09;43.90
48848;BME280;36611;51.638;5.784;2023-07-31T09:00:42;100653.72;;;27.08;43.64
48848;BME280;36611;51.638;5.784;2023-07-31T09:03:15;100657.34;;;27.09;43.61
48848;BME280;36611;51.638;5.784;2023-07-31T09:05:44;100645.47;;;27.08;43.81
48848;BME280;36611;51.638;5.784;2023-07-31T09:08:19;100647.38;;;27.08;43.81
48848;BME280;36611;51.638;5.784;2023-07-31T09:10:47;100649.28;;;27.07;43.79
48848;BME280;36611;51.638;5.784;2023-07-31T09:13:14;100647.59;;;27.06;43.94
48848;BME280;36611;51.638;5.784;2023-07-31T09:15:44;100635.72;;;27.06;43.87
48848;BME280;36611;51.638;5.784;2023-07-31T09:18:11;100642.94;;;27.07;43.97
48848;BME280;36611;51.638;5.784;2023-07-31T09:20:38;100634.88;;;27.05;43.55
48848;BME280;36611;51.638;5.784;2023-07-31T09:23:13;100635.72;;;27.06;43.84
48848;BME280;36611;51.638;5.784;2023-07-31T09:25:43;100641.25;;;27.06;43.94
48848;BME280;36611;51.638;5.784;2023-07-31T09:28:11;100632.13;;;27.05;43.89
48848;BME280;36611;51.638;5.784;2023-07-31T09:30:46;100634.88;;;27.05;43.92
48848;BME280;36611;51.638;5.784;2023-07-31T09:33:14;100635.31;;;27.02;43.79
48848;BME280;36611;51.638;5.784;2023-07-31T09:35:40;100634.47;;;27.02;43.84
48848;BME280;36611;51.638;5.784;2023-07-31T09:38:12;100626.00;;;27.03;43.88
48848;BME280;36611;51.638;5.784;2023-07-31T09:40:41;100621.31;;;27.04;44.22
48848;BME280;36611;51.638;5.784;2023-07-31T09:43:10;100619.41;;;27.04;44.10
48848;BME280;36611;51.638;5.784;2023-07-31T09:45:39;100614.97;;;27.03;43.81
48848;BME280;36611;51.638;5.784;2023-07-31T09:48:15;100609.22;;;27.05;43.99
48848;BME280;36611;51.638;5.784;2023-07-31T09:50:46;100616.88;;;27.03;43.81
48848;BME280;36611;51.638;5.784;2023-07-31T09:53:13;100606.47;;;27.05;43.93
48848;BME280;36611;51.638;5.784;2023-07-31T09:55:41;100622.16;;;27.04;43.98
48848;BME280;36611;51.638;5.784;2023-07-31T09:58:10;100611.97;;;27.05;43.76
48848;BME280;36611;51.638;5.784;2023-07-31T10:00:37;100613.06;;;27.04;43.97
48848;BME280;36611;51.638;5.784;2023-07-31T10:03:06;100613.06;;;27.04;43.83
48848;BME280;36611;51.638;5.784;2023-07-31T10:05:37;100611.97;;;27.05;43.86
48848;BME280;36611;51.638;5.784;2023-07-31T10:08:06;100616.66;;;27.04;43.93
48848;BME280;36611;51.638;5.784;2023-07-31T10:10:37;100622.16;;;27.04;43.94
48848;BME280;36611;51.638;5.784;2023-07-31T10:13:08;100623.00;;;27.05;43.84
48848;BME280;36611;51.638;5.784;2023-07-31T10:15:36;100617.72;;;27.03;43.95
48848;BME280;36611;51.638;5.784;2023-07-31T10:18:05;100610.28;;;27.04;43.99
48848;BME280;36611;51.638;5.784;2023-07-31T10:20:33;100610.28;;;27.04;44.02
48848;BME280;36611;51.638;5.784;2023-07-31T10:23:00;100610.28;;;27.04;44.30
48848;BME280;36611;51.638;5.784;2023-07-31T10:25:28;100614.97;;;27.03;43.76
48848;BME280;36611;51.638;5.784;2023-07-31T10:27:56;100605.63;;;27.04;43.89
48848;BME280;36611;51.638;5.784;2023-07-31T10:30:29;100604.78;;;27.04;43.78
48848;BME280;36611;51.638;5.784;2023-07-31T10:32:56;100611.13;;;27.04;43.73
48848;BME280;36611;51.638;5.784;2023-07-31T10:35:24;100601.19;;;27.03;43.67
48848;BME280;36611;51.638;5.784;2023-07-31T10:37:51;100599.28;;;27.04;44.01
48848;BME280;36611;51.638;5.784;2023-07-31T10:40:23;100596.50;;;27.04;43.95
48848;BME280;36611;51.638;5.784;2023-07-31T10:42:52;100600.09;;;27.04;44.07
48848;BME280;36611;51.638;5.784;2023-07-31T10:45:40;100600.09;;;27.04;43.93
48848;BME280;36611;51.638;5.784;2023-07-31T10:48:15;100599.03;;;27.05;43.99
48848;BME280;36611;51.638;5.784;2023-07-31T10:50:55;100594.59;;;27.04;43.99
48848;BME280;36611;51.638;5.784;2023-07-31T10:53:28;100593.75;;;27.04;43.93
48848;BME280;36611;51.638;5.784;2023-07-31T10:56:02;100600.09;;;27.04;44.13
48848;BME280;36611;51.638;5.784;2023-07-31T10:58:31;100596.50;;;27.04;43.89
48848;BME280;36611;51.638;5.784;2023-07-31T11:01:03;100594.59;;;27.04;44.04
48848;BME280;36611;51.638;5.784;2023-07-31T11:03:48;100591.00;;;27.04;44.18
48848;BME280;36611;51.638;5.784;2023-07-31T11:06:16;100588.25;;;27.04;44.00
48848;BME280;36611;51.638;5.784;2023-07-31T11:08:49;100579.97;;;27.04;44.04
48848;BME280;36611;51.638;5.784;2023-07-31T11:11:18;100586.56;;;27.03;44.14
48848;BME280;36611;51.638;5.784;2023-07-31T11:13:46;100581.88;;;27.03;44.05
48848;BME280;36611;51.638;5.784;2023-07-31T11:16:17;100600.09;;;27.04;43.92
48848;BME280;36611;51.638;5.784;2023-07-31T11:18:46;100595.66;;;27.03;44.11
48848;BME280;36611;51.638;5.784;2023-07-31T11:21:18;100592.06;;;27.03;44.06
48848;BME280;36611;51.638;5.784;2023-07-31T11:23:52;100591.00;;;27.04;44.09
48848;BME280;36611;51.638;5.784;2023-07-31T11:26:20;100598.41;;;27.03;44.06
48848;BME280;36611;51.638;5.784;2023-07-31T11:28:47;100592.91;;;27.03;44.28
48848;BME280;36611;51.638;5.784;2023-07-31T11:31:14;100588.25;;;27.04;44.16
48848;BME280;36611;51.638;5.784;2023-07-31T11:33:41;100580.81;;;27.04;44.08
48848;BME280;36611;51.638;5.784;2023-07-31T11:36:26;100587.16;;;27.05;44.18
48848;BME280;36611;51.638;5.784;2023-07-31T11:38:53;100579.97;;;27.04;43.91
48848;BME280;36611;51.638;5.784;2023-07-31T11:41:19;100585.47;;;27.04;43.93
48848;BME280;36611;51.638;5.784;2023-07-31T11:43:46;100578.06;;;27.04;43.76
48848;BME280;36611;51.638;5.784;2023-07-31T11:46:14;100585.25;;;27.05;44.07
48848;BME280;36611;51.638;5.784;2023-07-31T11:48:41;100578.91;;;27.05;44.18
48848;BME280;36611;51.638;5.784;2023-07-31T11:51:10;100571.47;;;27.05;44.25
48848;BME280;36611;51.638;5.784;2023-07-31T11:53:44;100563.22;;;27.05;44.17
48848;BME280;36611;51.638;5.784;2023-07-31T11:56:14;100567.66;;;27.06;43.99
48848;BME280;36611;51.638;5.784;2023-07-31T11:58:43;100562.16;;;27.06;44.30
48848;BME280;36611;51.638;5.784;2023-07-31T12:01:14;100558.53;;;27.06;44.07
48848;BME280;36611;51.638;5.784;2023-07-31T12:03:44;100560.22;;;27.07;44.16
48848;BME280;36611;51.638;5.784;2023-07-31T12:06:11;100559.38;;;27.06;44.19
48848;BME280;36611;51.638;5.784;2023-07-31T12:08:37;100567.44;;;27.08;44.14
48848;BME280;36611;51.638;5.784;2023-07-31T12:11:05;100571.03;;;27.08;43.98
48848;BME280;36611;51.638;5.784;2023-07-31T12:13:33;100566.59;;;27.07;44.00
48848;BME280;36611;51.638;5.784;2023-07-31T12:16:01;100565.53;;;27.08;44.06
48848;BME280;36611;51.638;5.784;2023-07-31T12:18:37;100568.28;;;27.08;44.15
48848;BME280;36611;51.638;5.784;2023-07-31T12:21:05;100572.53;;;27.04;44.28
48848;BME280;36611;51.638;5.784;2023-07-31T12:23:33;100578.06;;;27.04;43.89
48848;BME280;36611;51.638;5.784;2023-07-31T12:28:45;100578.91;;;27.05;44.01
48848;BME280;36611;51.638;5.784;2023-07-31T12:31:20;100577.00;;;27.05;43.95
48848;BME280;36611;51.638;5.784;2023-07-31T12:33:49;100571.47;;;27.05;44.04
48848;BME280;36611;51.638;5.784;2023-07-31T12:36:18;100562.38;;;27.05;44.02
48848;BME280;36611;51.638;5.784;2023-07-31T12:38:46;100558.75;;;27.04;44.20
48848;BME280;36611;51.638;5.784;2023-07-31T12:41:13;100555.16;;;27.04;44.34
48848;BME280;36611;51.638;5.784;2023-07-31T12:43:41;100544.97;;;27.04;43.83
48848;BME280;36611;51.638;5.784;2023-07-31T12:46:09;100556.00;;;27.04;44.06
48848;BME280;36611;51.638;5.784;2023-07-31T12:48:38;100550.28;;;27.06;44.23
48848;BME280;36611;51.638;5.784;2023-07-31T12:51:05;100541.16;;;27.05;44.23
48848;BME280;36611;51.638;5.784;2023-07-31T12:53:33;100541.16;;;27.05;44.16
48848;BME280;36611;51.638;5.784;2023-07-31T12:56:01;100540.09;;;27.06;44.35
48848;BME280;36611;51.638;5.784;2023-07-31T12:58:27;100540.09;;;27.06;44.10
48848;BME280;36611;51.638;5.784;2023-07-31T13:00:54;100528.22;;;27.06;44.18
48848;BME280;36611;51.638;5.784;2023-07-31T13:03:21;100522.72;;;27.06;44.13